createdAt,value
2022-11-27T00:00:08.363Z,12.05
2022-11-27T00:02:43.419Z,12.05
2022-11-27T00:05:14.174Z,10.27
2022-11-27T00:07:44.859Z,10.40
2022-11-27T00:10:15.705Z,10.43
2022-11-27T00:12:46.436Z,12.00
2022-11-27T00:15:19.553Z,12.00
2022-11-27T00:17:50.139Z,12.88
2022-11-27T00:20:20.798Z,12.38
2022-11-27T00:22:51.429Z,11.90
2022-11-27T00:25:22.093Z,12.02
2022-11-27T00:27:52.720Z,11.55
2022-11-27T00:30:25.901Z,12.23
2022-11-27T00:32:56.561Z,13.13
2022-11-27T00:35:27.000Z,12.98
2022-11-27T00:37:57.613Z,12.77
2022-11-27T00:40:28.151Z,12.07
2022-11-27T00:42:58.730Z,13.20
2022-11-27T00:45:32.320Z,13.13
2022-11-27T00:48:02.789Z,15.18
2022-11-27T00:50:33.374Z,14.90
2022-11-27T00:53:04.072Z,12.98
2022-11-27T00:55:34.858Z,13.77
2022-11-27T00:58:05.495Z,12.82
2022-11-27T01:00:38.541Z,14.95
2022-11-27T01:03:09.192Z,15.68
2022-11-27T01:05:40.125Z,15.68
2022-11-27T01:08:10.617Z,16.23
2022-11-27T01:10:41.152Z,15.05
2022-11-27T01:13:11.652Z,14.25
2022-11-27T01:15:47.777Z,13.63
2022-11-27T01:18:18.575Z,11.38
2022-11-27T01:20:49.046Z,10.90
2022-11-27T01:23:19.655Z,9.93
2022-11-27T01:25:50.333Z,11.55
2022-11-27T01:28:20.927Z,11.70
2022-11-27T01:30:54.558Z,11.93
2022-11-27T01:33:25.469Z,10.98
2022-11-27T01:36:00.581Z,11.43
2022-11-27T01:38:32.460Z,12.43
2022-11-27T01:41:04.454Z,12.57
2022-11-27T01:43:46.202Z,12.65
2022-11-27T01:46:31.344Z,14.93
2022-11-27T01:49:07.714Z,12.52
2022-11-27T01:51:39.723Z,13.93
2022-11-27T01:54:11.944Z,14.40
2022-11-27T01:56:45.019Z,11.15
2022-11-27T01:59:15.868Z,11.18
2022-11-27T02:01:49.001Z,10.93
2022-11-27T02:04:21.630Z,11.93
2022-11-27T02:06:52.355Z,12.15
2022-11-27T02:09:22.981Z,12.70
2022-11-27T02:11:59.865Z,10.48
2022-11-27T02:14:57.966Z,9.98
2022-11-27T02:17:38.272Z,10.18
2022-11-27T02:20:21.712Z,9.77
2022-11-27T02:23:13.357Z,8.45
2022-11-27T02:25:54.286Z,9.32
2022-11-27T02:28:36.432Z,9.35
2022-11-27T02:31:15.092Z,9.40
2022-11-27T02:33:50.424Z,9.98
2022-11-27T02:36:25.943Z,9.13
2022-11-27T02:41:32.289Z,7.68
2022-11-27T02:44:05.204Z,6.80
2022-11-27T02:46:38.739Z,11.45
2022-11-27T02:49:15.931Z,12.48
2022-11-27T02:51:51.233Z,12.40
2022-11-27T02:54:26.858Z,9.07
2022-11-27T02:56:59.307Z,9.32
2022-11-27T02:59:36.011Z,9.30
2022-11-27T03:02:13.145Z,9.95
2022-11-27T03:04:49.450Z,10.32
2022-11-27T03:07:28.913Z,9.82
2022-11-27T03:10:03.828Z,10.15
2022-11-27T03:12:34.281Z,9.52
2022-11-27T03:15:04.818Z,10.73
2022-11-27T03:17:52.046Z,9.50
2022-11-27T03:20:27.047Z,9.05
2022-11-27T03:22:58.340Z,9.20
2022-11-27T03:25:28.980Z,10.40
2022-11-27T03:28:03.006Z,8.73
2022-11-27T03:30:33.803Z,8.18
2022-11-27T03:33:07.069Z,8.57
2022-11-27T03:35:37.585Z,8.25
2022-11-27T03:38:08.393Z,8.15
2022-11-27T03:40:48.220Z,7.72
2022-11-27T03:43:26.185Z,7.55
2022-11-27T03:46:03.286Z,8.00
2022-11-27T03:48:41.389Z,10.55
2022-11-27T03:51:21.036Z,11.77
2022-11-27T03:54:00.307Z,12.63
2022-11-27T03:56:37.119Z,12.45
2022-11-27T03:59:13.519Z,13.95
2022-11-27T04:01:44.313Z,11.15
2022-11-27T04:04:17.776Z,10.18
2022-11-27T04:06:48.506Z,10.68
2022-11-27T04:09:19.027Z,9.48
2022-11-27T04:11:49.561Z,9.65
2022-11-27T04:14:20.155Z,10.13
2022-11-27T04:16:50.654Z,10.07
2022-11-27T04:19:23.843Z,9.45
2022-11-27T04:21:54.329Z,9.98
2022-11-27T04:24:24.964Z,9.35
2022-11-27T04:26:55.460Z,10.32
2022-11-27T04:29:26.088Z,9.40
2022-11-27T04:31:56.513Z,11.35
2022-11-27T04:34:29.669Z,10.93
2022-11-27T04:37:00.234Z,11.00
2022-11-27T04:39:31.008Z,10.23
2022-11-27T04:42:01.497Z,9.23
2022-11-27T04:44:32.132Z,8.18
2022-11-27T04:47:02.954Z,9.13
2022-11-27T04:49:36.064Z,8.07
2022-11-27T04:52:07.706Z,8.90
2022-11-27T04:54:38.286Z,8.68
2022-11-27T04:57:09.005Z,11.30
2022-11-27T04:59:39.512Z,11.18
2022-11-27T05:02:10.050Z,11.52
2022-11-27T05:04:43.240Z,12.02
2022-11-27T05:07:13.807Z,13.82
2022-11-27T05:09:44.488Z,14.07
2022-11-27T05:12:15.007Z,13.23
2022-11-27T05:14:45.506Z,13.80
2022-11-27T05:17:16.073Z,13.98
2022-11-27T05:19:49.171Z,14.18
2022-11-27T05:22:19.756Z,12.73
2022-11-27T05:24:50.340Z,10.88
2022-11-27T05:27:20.837Z,10.90
2022-11-27T05:29:51.360Z,10.10
2022-11-27T05:32:21.848Z,9.63
2022-11-27T05:34:54.923Z,11.02
2022-11-27T05:37:25.428Z,10.73
2022-11-27T05:39:55.913Z,11.85
2022-11-27T05:42:26.498Z,8.65
2022-11-27T05:44:58.677Z,7.88
2022-11-27T05:47:29.306Z,9.32
2022-11-27T05:50:03.093Z,10.25
2022-11-27T05:52:34.133Z,9.88
2022-11-27T05:55:04.892Z,8.65
2022-11-27T05:57:35.424Z,8.98
2022-11-27T06:00:06.436Z,8.90
2022-11-27T06:02:37.250Z,8.65
2022-11-27T06:05:11.953Z,9.35
2022-11-27T06:07:42.693Z,10.63
2022-11-27T06:10:14.078Z,10.82
2022-11-27T06:12:44.729Z,9.90
2022-11-27T06:15:15.247Z,11.55
2022-11-27T06:17:45.821Z,11.18
2022-11-27T06:20:20.460Z,11.43
2022-11-27T06:22:51.100Z,12.60
2022-11-27T06:25:21.782Z,13.32
2022-11-27T06:27:52.463Z,13.07
2022-11-27T06:30:22.929Z,13.65
2022-11-27T06:32:53.458Z,12.10
2022-11-27T06:35:26.674Z,13.10
2022-11-27T06:37:57.315Z,12.32
2022-11-27T06:40:28.024Z,12.75
2022-11-27T06:42:58.613Z,12.27
2022-11-27T06:45:29.164Z,13.20
2022-11-27T06:47:59.874Z,13.38
2022-11-27T06:50:32.950Z,13.43
2022-11-27T06:53:03.521Z,14.02
2022-11-27T06:55:33.998Z,13.15
2022-11-27T06:58:04.624Z,13.65
2022-11-27T07:00:35.162Z,15.13
2022-11-27T07:03:05.885Z,16.42
2022-11-27T07:05:40.164Z,16.92
2022-11-27T07:08:10.781Z,16.27
2022-11-27T07:10:41.586Z,17.35
2022-11-27T07:13:12.180Z,18.67
2022-11-27T07:15:42.741Z,16.98
2022-11-27T07:18:13.490Z,17.10
2022-11-27T07:20:46.638Z,16.50
2022-11-27T07:23:17.269Z,16.38
2022-11-27T07:25:47.843Z,16.50
2022-11-27T07:28:19.176Z,18.60
2022-11-27T07:30:57.698Z,20.17
2022-11-27T07:33:29.237Z,18.20
2022-11-27T07:36:08.110Z,17.17
2022-11-27T07:38:38.633Z,17.48
2022-11-27T07:41:10.589Z,16.15
2022-11-27T07:43:42.589Z,16.80
2022-11-27T07:46:15.834Z,17.05
2022-11-27T07:48:46.709Z,18.20
2022-11-27T07:51:22.703Z,22.55
2022-11-27T07:53:54.588Z,22.15
2022-11-27T07:56:25.457Z,21.95
2022-11-27T07:58:55.865Z,27.00
2022-11-27T08:01:26.794Z,38.40
2022-11-27T08:03:57.285Z,26.88
2022-11-27T08:06:30.694Z,25.30
2022-11-27T08:09:01.273Z,26.27
2022-11-27T08:11:35.403Z,26.90
2022-11-27T08:14:08.318Z,26.80
2022-11-27T08:16:39.100Z,26.23
2022-11-27T08:19:09.988Z,21.58
2022-11-27T08:21:43.114Z,21.92
2022-11-27T08:24:13.615Z,24.40
2022-11-27T08:26:44.240Z,24.77
2022-11-27T08:29:14.753Z,24.15
2022-11-27T08:31:45.319Z,25.80
2022-11-27T08:34:15.889Z,21.50
2022-11-27T08:36:49.088Z,20.73
2022-11-27T08:39:19.979Z,18.88
2022-11-27T08:41:50.590Z,19.85
2022-11-27T08:44:21.284Z,16.45
2022-11-27T08:46:52.031Z,16.48
2022-11-27T08:49:22.571Z,17.73
2022-11-27T08:51:55.738Z,15.80
2022-11-27T08:54:26.434Z,18.33
2022-11-27T08:56:56.980Z,18.60
2022-11-27T08:59:27.633Z,16.10
2022-11-27T09:01:58.284Z,16.00
2022-11-27T09:04:28.922Z,17.13
2022-11-27T09:07:02.165Z,17.70
2022-11-27T09:09:32.649Z,16.65
2022-11-27T09:12:03.450Z,15.95
2022-11-27T09:14:33.901Z,17.40
2022-11-27T09:17:04.620Z,17.10
2022-11-27T09:19:35.096Z,15.02
2022-11-27T09:22:08.412Z,14.07
2022-11-27T09:24:40.200Z,12.90
2022-11-27T09:27:11.114Z,11.98
2022-11-27T09:29:41.881Z,11.98
2022-11-27T09:32:12.608Z,13.60
2022-11-27T09:34:43.621Z,12.52
2022-11-27T09:37:17.082Z,14.25
2022-11-27T09:39:47.704Z,13.85
2022-11-27T09:42:31.352Z,12.43
2022-11-27T09:45:03.941Z,14.02
2022-11-27T09:47:42.002Z,12.68
2022-11-27T09:50:17.885Z,12.30
2022-11-27T09:52:54.252Z,10.65
2022-11-27T09:55:29.531Z,11.07
2022-11-27T09:58:05.798Z,9.77
2022-11-27T10:00:36.901Z,9.57
2022-11-27T10:03:11.695Z,8.57
2022-11-27T10:05:51.070Z,9.15
2022-11-27T10:08:33.245Z,10.73
2022-11-27T10:11:16.807Z,10.70
2022-11-27T10:14:02.768Z,11.70
2022-11-27T10:16:44.526Z,10.40
2022-11-27T10:19:33.678Z,10.07
2022-11-27T10:22:14.325Z,10.88
2022-11-27T10:25:03.803Z,12.38
2022-11-27T10:30:16.862Z,11.55
2022-11-27T10:32:56.887Z,12.85
2022-11-27T10:35:29.847Z,13.40
2022-11-27T10:38:07.560Z,12.35
2022-11-27T10:40:43.471Z,13.82
2022-11-27T10:43:18.665Z,11.82
2022-11-27T10:45:53.098Z,12.50
2022-11-27T10:48:24.372Z,12.93
2022-11-27T10:50:54.985Z,11.93
2022-11-27T10:53:30.309Z,10.10
2022-11-27T10:56:17.854Z,6.93
2022-11-27T10:58:53.618Z,5.50
2022-11-27T11:01:25.440Z,4.70
2022-11-27T11:04:31.665Z,4.35
2022-11-27T11:07:01.888Z,3.85
2022-11-27T11:09:37.606Z,4.82
2022-11-27T11:12:21.391Z,4.93
2022-11-27T11:14:55.986Z,4.75
2022-11-27T11:17:29.318Z,4.47
2022-11-27T11:19:59.869Z,4.90
2022-11-27T11:22:32.296Z,4.93
2022-11-27T11:25:02.857Z,6.97
2022-11-27T11:27:37.345Z,5.07
2022-11-27T11:30:10.508Z,4.72
2022-11-27T11:32:45.145Z,4.43
2022-11-27T11:35:30.336Z,4.32
2022-11-27T11:38:02.010Z,4.13
2022-11-27T11:40:34.541Z,5.25
2022-11-27T11:43:27.151Z,5.30
2022-11-27T11:45:58.067Z,5.22
2022-11-27T11:48:30.188Z,6.75
2022-11-27T11:51:05.456Z,6.10
2022-11-27T11:53:39.726Z,6.00
2022-11-27T11:56:28.087Z,5.63
2022-11-27T11:59:05.707Z,5.80
2022-11-27T12:01:54.621Z,5.82
2022-11-27T12:04:44.672Z,5.40
2022-11-27T12:07:23.815Z,5.75
2022-11-27T12:10:02.868Z,5.70
2022-11-27T12:12:51.095Z,6.75
2022-11-27T12:15:32.183Z,6.45
2022-11-27T12:18:06.432Z,6.22
2022-11-27T12:20:50.385Z,6.07
2022-11-27T12:23:49.590Z,6.60
2022-11-27T12:26:29.861Z,5.90
2022-11-27T12:29:19.214Z,6.63
2022-11-27T12:32:14.834Z,6.60
2022-11-27T12:34:57.262Z,5.63
2022-11-27T12:37:46.150Z,5.28
2022-11-27T12:40:35.642Z,6.30
2022-11-27T12:43:16.761Z,7.15
2022-11-27T12:45:51.342Z,6.07
2022-11-27T12:48:29.634Z,5.37
2022-11-27T12:51:03.698Z,5.80
2022-11-27T12:53:41.684Z,6.63
2022-11-27T12:56:18.097Z,7.45
2022-11-27T12:58:54.278Z,9.45
2022-11-27T13:01:30.129Z,6.95
2022-11-27T13:04:15.031Z,7.22
2022-11-27T13:06:53.298Z,7.30
2022-11-27T13:09:34.779Z,6.95
2022-11-27T13:12:06.775Z,7.03
2022-11-27T13:14:41.645Z,8.32
2022-11-27T13:17:18.767Z,7.60
2022-11-27T13:19:53.883Z,7.63
2022-11-27T13:22:36.452Z,7.97
2022-11-27T13:25:07.902Z,7.40
2022-11-27T13:27:44.106Z,8.20
2022-11-27T13:30:24.348Z,7.75
2022-11-27T13:32:57.588Z,7.60
2022-11-27T13:35:34.742Z,7.88
2022-11-27T13:38:13.151Z,8.00
2022-11-27T13:40:46.303Z,8.25
2022-11-27T13:43:29.146Z,8.15
2022-11-27T13:46:08.994Z,7.97
2022-11-27T13:48:43.725Z,7.60
2022-11-27T13:51:27.372Z,7.60
2022-11-27T13:54:10.007Z,8.27
2022-11-27T13:56:40.472Z,7.63
2022-11-27T13:59:19.074Z,9.40
2022-11-27T14:02:01.381Z,10.30
2022-11-27T14:04:34.069Z,9.77
2022-11-27T14:07:10.559Z,11.02
2022-11-27T14:09:44.411Z,13.38
2022-11-27T14:12:25.291Z,14.10
2022-11-27T14:15:10.207Z,16.08
2022-11-27T14:17:44.451Z,14.10
2022-11-27T14:20:28.371Z,14.25
2022-11-27T14:23:18.536Z,16.80
2022-11-27T14:25:49.115Z,10.93
2022-11-27T14:28:26.498Z,9.45
2022-11-27T14:30:59.944Z,12.48
2022-11-27T14:33:33.213Z,17.83
2022-11-27T14:36:26.524Z,19.88
2022-11-27T14:39:00.021Z,24.15
2022-11-27T14:41:32.071Z,20.17
2022-11-27T14:44:03.532Z,15.48
2022-11-27T14:46:35.528Z,14.98
2022-11-27T14:49:06.048Z,15.82
2022-11-27T14:51:39.078Z,15.18
2022-11-27T14:54:15.688Z,12.57
2022-11-27T14:56:47.368Z,14.57
2022-11-27T14:59:20.117Z,13.55
2022-11-27T15:02:02.371Z,13.63
2022-11-27T15:04:37.755Z,13.73
2022-11-27T15:07:16.516Z,13.65
2022-11-27T15:09:52.128Z,13.95
2022-11-27T15:12:26.774Z,13.90
2022-11-27T15:15:01.138Z,15.55
2022-11-27T15:17:36.690Z,14.25
2022-11-27T15:20:21.238Z,13.55
2022-11-27T15:22:53.689Z,14.73
2022-11-27T15:25:42.642Z,14.10
2022-11-27T15:28:32.276Z,15.95
2022-11-27T15:31:05.201Z,16.77
2022-11-27T15:33:37.672Z,17.67
2022-11-27T15:36:24.203Z,17.77
2022-11-27T15:39:07.422Z,18.63
2022-11-27T15:41:53.225Z,18.63
2022-11-27T15:47:00.934Z,16.63
2022-11-27T15:49:36.910Z,18.70
2022-11-27T15:52:09.861Z,18.13
2022-11-27T15:54:42.498Z,18.42
2022-11-27T15:57:21.178Z,19.20
2022-11-27T15:59:58.105Z,17.10
2022-11-27T16:02:31.395Z,18.75
2022-11-27T16:05:03.972Z,22.33
2022-11-27T16:07:38.573Z,21.17
2022-11-27T16:10:15.611Z,19.92
2022-11-27T16:12:56.177Z,20.10
2022-11-27T16:15:32.916Z,20.60
2022-11-27T16:18:08.488Z,22.02
2022-11-27T16:20:41.433Z,22.38
2022-11-27T16:23:15.323Z,22.35
2022-11-27T16:25:50.296Z,23.13
2022-11-27T16:28:28.730Z,28.10
2022-11-27T16:31:03.301Z,25.98
2022-11-27T16:33:39.912Z,29.20
2022-11-27T16:36:16.441Z,29.70
2022-11-27T16:38:50.201Z,31.30
2022-11-27T16:41:24.744Z,30.95
2022-11-27T16:44:03.882Z,30.02
2022-11-27T16:46:42.040Z,29.45
2022-11-27T16:49:16.001Z,25.92
2022-11-27T16:51:52.294Z,25.83
2022-11-27T16:54:25.131Z,26.10
2022-11-27T16:57:00.266Z,25.88
2022-11-27T16:59:39.780Z,30.48
2022-11-27T17:02:15.194Z,33.72
2022-11-27T17:04:49.490Z,21.73
2022-11-27T17:07:22.462Z,19.45
2022-11-27T17:09:55.605Z,19.23
2022-11-27T17:12:28.301Z,22.50
2022-11-27T17:15:05.043Z,19.08
2022-11-27T17:17:41.014Z,25.73
2022-11-27T17:20:14.869Z,21.30
2022-11-27T17:22:50.203Z,16.67
2022-11-27T17:25:26.699Z,21.25
2022-11-27T17:28:01.323Z,20.92
2022-11-27T17:30:39.382Z,21.27
2022-11-27T17:33:13.993Z,25.48
2022-11-27T17:35:48.636Z,24.45
2022-11-27T17:38:21.905Z,24.20
2022-11-27T17:40:55.364Z,20.55
2022-11-27T17:43:32.000Z,20.65
2022-11-27T17:46:13.577Z,21.55
2022-11-27T17:48:48.993Z,26.10
2022-11-27T17:51:23.493Z,25.00
2022-11-27T17:53:58.780Z,25.75
2022-11-27T17:56:39.612Z,28.10
2022-11-27T17:59:15.403Z,30.15
2022-11-27T18:01:57.177Z,34.30
2022-11-27T18:04:32.495Z,35.45
2022-11-27T18:09:39.397Z,34.47
2022-11-27T18:12:13.284Z,31.90
2022-11-27T18:14:48.726Z,32.63
2022-11-27T18:17:27.015Z,29.30
2022-11-27T18:20:01.906Z,29.92
2022-11-27T18:22:36.331Z,28.63
2022-11-27T18:25:10.047Z,24.98
2022-11-27T18:27:43.241Z,29.02
2022-11-27T18:30:19.056Z,28.23
2022-11-27T18:32:55.441Z,28.55
2022-11-27T18:35:32.395Z,30.65
2022-11-27T18:38:05.784Z,35.20
2022-11-27T18:40:41.757Z,33.45
2022-11-27T18:43:14.881Z,34.80
2022-11-27T18:45:54.429Z,35.08
2022-11-27T18:48:34.412Z,35.10
2022-11-27T18:51:13.178Z,36.28
2022-11-27T18:53:49.262Z,35.40
2022-11-27T18:56:29.705Z,40.28
2022-11-27T18:59:06.821Z,39.38
2022-11-27T19:01:46.012Z,39.55
2022-11-27T19:04:22.225Z,37.63
2022-11-27T19:06:57.899Z,32.72
2022-11-27T19:12:04.296Z,26.27
2022-11-27T19:14:42.029Z,32.00
2022-11-27T19:17:16.657Z,33.67
2022-11-27T19:19:54.803Z,37.92
2022-11-27T19:22:33.863Z,39.60
2022-11-27T19:25:11.909Z,39.78
2022-11-27T19:27:49.418Z,41.38
2022-11-27T19:30:23.946Z,41.55
2022-11-27T19:32:56.929Z,41.28
2022-11-27T19:35:34.199Z,41.35
2022-11-27T19:38:08.828Z,38.60
2022-11-27T19:40:46.050Z,38.58
2022-11-27T19:43:19.435Z,39.58
2022-11-27T19:45:53.995Z,37.22
2022-11-27T19:48:28.340Z,36.85
2022-11-27T19:51:10.269Z,39.15
2022-11-27T19:53:44.782Z,37.75
2022-11-27T19:56:18.484Z,37.00
2022-11-27T19:58:52.307Z,38.13
2022-11-27T20:01:27.934Z,37.92
2022-11-27T20:04:02.276Z,36.78
2022-11-27T20:06:38.301Z,39.33
2022-11-27T20:09:14.174Z,37.70
2022-11-27T20:11:51.422Z,36.08
2022-11-27T20:14:24.956Z,36.00
2022-11-27T20:17:03.293Z,39.13
2022-11-27T20:19:36.625Z,43.85
2022-11-27T20:22:13.066Z,33.90
2022-11-27T20:25:11.281Z,35.92
2022-11-27T20:27:41.829Z,33.85
2022-11-27T20:30:15.931Z,31.25
2022-11-27T20:32:51.560Z,29.80
2022-11-27T20:35:26.213Z,32.53
2022-11-27T20:38:04.234Z,36.13
2022-11-27T20:40:42.985Z,35.85
2022-11-27T20:43:16.654Z,38.90
2022-11-27T20:45:50.386Z,36.92
2022-11-27T20:48:23.562Z,38.45
2022-11-27T20:50:56.779Z,36.92
2022-11-27T20:53:33.044Z,35.80
2022-11-27T20:56:11.470Z,37.95
2022-11-27T20:58:46.173Z,37.28
2022-11-27T21:01:21.347Z,38.78
2022-11-27T21:03:55.852Z,38.78
2022-11-27T21:06:32.017Z,34.80
2022-11-27T21:09:10.164Z,34.60
2022-11-27T21:11:43.187Z,32.15
2022-11-27T21:14:16.436Z,31.85
2022-11-27T21:16:50.826Z,32.20
2022-11-27T21:19:25.587Z,32.13
2022-11-27T21:22:00.472Z,31.27
2022-11-27T21:24:35.721Z,32.70
2022-11-27T21:27:10.212Z,33.25
2022-11-27T21:29:42.008Z,35.72
2022-11-27T21:32:14.123Z,37.90
2022-11-27T21:34:45.882Z,36.60
2022-11-27T21:37:16.668Z,35.80
2022-11-27T21:39:50.177Z,36.67
2022-11-27T21:42:22.434Z,35.53
2022-11-27T21:44:54.190Z,36.58
2022-11-27T21:47:24.950Z,37.45
2022-11-27T21:49:55.659Z,37.00
2022-11-27T21:52:26.404Z,38.90
2022-11-27T21:55:07.740Z,37.67
2022-11-27T21:57:41.760Z,36.72
2022-11-27T22:00:13.202Z,37.25
2022-11-27T22:02:43.942Z,34.75
2022-11-27T22:05:15.599Z,33.00
2022-11-27T22:07:46.742Z,33.30
2022-11-27T22:10:20.124Z,31.60
2022-11-27T22:12:50.695Z,30.08
2022-11-27T22:15:21.551Z,27.85
2022-11-27T22:17:52.146Z,26.35
2022-11-27T22:20:23.723Z,27.52
2022-11-27T22:22:54.643Z,27.17
2022-11-27T22:25:29.211Z,27.50
2022-11-27T22:28:00.006Z,26.77
2022-11-27T22:30:30.984Z,27.00
2022-11-27T22:33:01.849Z,28.92
2022-11-27T22:35:32.501Z,27.80
2022-11-27T22:38:03.006Z,25.92
2022-11-27T22:40:36.470Z,25.50
2022-11-27T22:43:07.602Z,26.33
2022-11-27T22:45:47.987Z,22.55
2022-11-27T22:48:18.644Z,23.58
2022-11-27T22:50:49.291Z,22.65
2022-11-27T22:53:19.781Z,23.67
2022-11-27T22:55:53.255Z,22.08
2022-11-27T22:58:25.023Z,23.23
2022-11-27T23:00:59.101Z,22.10
2022-11-27T23:03:30.187Z,21.48
2022-11-27T23:06:01.536Z,21.00
2022-11-27T23:08:33.579Z,20.67
2022-11-27T23:11:08.544Z,21.45
2022-11-27T23:13:39.327Z,20.65
2022-11-27T23:16:11.194Z,22.42
2022-11-27T23:18:42.271Z,22.25
2022-11-27T23:21:15.265Z,21.98
2022-11-27T23:23:46.034Z,24.55
2022-11-27T23:26:21.348Z,25.00
2022-11-27T23:28:53.743Z,21.98
2022-11-27T23:31:31.124Z,22.48
2022-11-27T23:34:04.292Z,23.38
2022-11-27T23:36:36.205Z,20.75
2022-11-27T23:39:12.401Z,21.38
2022-11-27T23:41:46.520Z,21.80
2022-11-27T23:44:17.013Z,22.92
2022-11-27T23:46:48.346Z,23.88
2022-11-27T23:49:19.197Z,21.63
2022-11-27T23:51:49.843Z,21.52
2022-11-27T23:54:20.408Z,22.25
2022-11-27T23:56:54.237Z,21.80
2022-11-27T23:59:24.735Z,21.38
